Airport ICAO


22:18 UTC

17°C

Scattered clouds


An affordable passengers' Moving Map for your aircraft. Made for the iPad and the iPhone
More information here

LIMG Albenga


Albenga ITALY   VFR


METAR LIMG 131650Z VRB03KT 9999 SCT025 17/16 Q1027 5h28min





NOTAMS

OPEN